Time;durP1;ratioP1;P1;durP2;ratioP2;P2;SDS_P1;SDS_P2;PMS_P1;PMS_P2;Temp;Humidity;BMP_temperature;BMP_pressure;BME280_temperature;BME280_humidity;BME280_pressure;Samples;Min_cycle;Max_cycle;Signal;HPM_P1;HPM_P2
2023/02/17 00:02:07;;;;;;;4.00;1.02;;;;;;;9.04;100.00;101069.47;4973733;28;20039;-96
2023/02/17 00:04:33;;;;;;;3.40;1.30;;;;;;;9.20;100.00;101098.00;4972284;28;20027;-96
2023/02/17 00:06:59;;;;;;;3.35;1.00;;;;;;;8.94;100.00;101050.97;4971561;28;20027;-96
2023/02/17 00:09:24;;;;;;;2.08;0.70;;;;;;;9.20;100.00;101088.53;4972601;28;20469;-96
2023/02/17 00:11:51;;;;;;;3.28;0.80;;;;;;;9.12;100.00;101075.16;4973062;28;20031;-96
2023/02/17 00:14:17;;;;;;;2.35;1.08;;;;;;;9.02;100.00;101065.28;4973879;28;20027;-95
2023/02/17 00:16:44;;;;;;;5.82;0.88;;;;;;;9.09;100.00;101082.16;4976743;28;20045;-96
2023/02/17 00:19:23;;;;;;;1.85;0.65;;;;;;;9.06;100.00;101059.94;4976367;28;20035;-96
2023/02/17 00:21:51;;;;;;;2.10;0.68;;;;;;;9.03;100.00;101046.38;4976762;28;20015;-96
2023/02/17 00:24:16;;;;;;;5.07;1.13;;;;;;;9.03;100.00;101051.50;4976097;28;20089;-95
2023/02/17 00:26:42;;;;;;;2.80;0.70;;;;;;;9.11;100.00;101085.50;4976704;28;20031;-96
2023/02/17 00:29:08;;;;;;;2.45;0.70;;;;;;;9.07;100.00;101058.19;4977028;28;20142;-95
2023/02/17 00:31:33;;;;;;;2.65;0.98;;;;;;;9.28;100.00;101088.22;4977096;28;20469;-94
2023/02/17 00:33:59;;;;;;;1.88;0.75;;;;;;;9.21;100.00;101087.63;4976880;28;20042;-95
2023/02/17 00:36:25;;;;;;;3.35;1.10;;;;;;;9.07;100.00;101058.19;4975752;28;20034;-96
2023/02/17 00:38:53;;;;;;;2.13;0.85;;;;;;;9.23;100.00;101073.88;4977353;28;20985;-95
2023/02/17 00:41:19;;;;;;;2.72;0.93;;;;;;;9.30;100.00;101095.88;4976769;28;20057;-95
2023/02/17 00:43:46;;;;;;;8.20;1.27;;;;;;;9.14;100.00;101057.03;4976961;28;20113;-94
2023/02/17 00:46:11;;;;;;;3.55;0.70;;;;;;;9.12;100.00;101056.25;4976360;28;20042;-95
2023/02/17 00:48:37;;;;;;;2.45;0.70;;;;;;;9.20;100.00;101059.38;4977347;28;20027;-95
2023/02/17 00:51:02;;;;;;;0.73;0.38;;;;;;;9.24;100.00;101071.19;4976004;28;20026;-96
2023/02/17 00:53:29;;;;;;;1.65;0.70;;;;;;;9.05;100.00;101075.47;4976191;28;20039;-95
2023/02/17 00:55:55;;;;;;;2.95;0.82;;;;;;;8.95;100.00;101060.38;4976070;28;20026;-96
2023/02/17 00:58:20;;;;;;;2.72;0.40;;;;;;;9.07;100.00;101053.03;4976198;28;20026;-95
2023/02/17 01:00:46;;;;;;;1.83;0.50;;;;;;;9.05;100.00;101060.03;4976074;28;20496;-94
2023/02/17 01:03:11;;;;;;;4.07;0.90;;;;;;;9.18;100.00;101067.16;4975768;28;20062;-95
2023/02/17 01:05:42;;;;;;;3.47;1.42;;;;;;;9.20;100.00;101049.06;4975674;28;20079;-95
2023/02/17 01:08:08;;;;;;;1.83;0.77;;;;;;;9.02;100.00;101035.22;4976149;28;20027;-96
2023/02/17 01:10:39;;;;;;;3.03;0.75;;;;;;;9.04;100.00;101033.41;4976371;28;20030;-96
2023/02/17 01:13:06;;;;;;;3.17;0.88;;;;;;;8.98;100.00;101049.97;4976543;28;20520;-96
2023/02/17 01:15:37;;;;;;;1.02;0.60;;;;;;;9.07;100.00;101076.22;4975235;28;20054;-96
2023/02/17 01:18:02;;;;;;;3.07;0.80;;;;;;;9.04;100.00;101059.16;4975383;28;20493;-96
2023/02/17 01:20:28;;;;;;;2.90;0.57;;;;;;;9.08;100.00;101059.88;4975926;28;20030;-96
2023/02/17 01:22:53;;;;;;;2.13;0.63;;;;;;;8.98;100.00;101039.66;4975381;28;20383;-96
2023/02/17 01:25:19;;;;;;;5.07;0.63;;;;;;;9.02;100.00;101058.38;4973896;28;20112;-96
2023/02/17 01:27:45;;;;;;;5.97;1.17;;;;;;;8.94;100.00;101045.81;4976935;28;20031;-95
2023/02/17 01:30:11;;;;;;;4.50;0.47;;;;;;;9.09;100.00;101058.97;4974995;28;20031;-95
2023/02/17 01:32:37;;;;;;;3.50;0.73;;;;;;;8.86;100.00;101024.72;4975327;28;20033;-95
2023/02/17 01:35:03;;;;;;;2.00;0.40;;;;;;;8.85;100.00;101038.50;4975433;28;20049;-96
2023/02/17 01:37:32;;;;;;;0.90;0.22;;;;;;;9.00;100.00;101066.19;4975945;28;20037;-96
2023/02/17 01:39:57;;;;;;;5.20;0.30;;;;;;;8.83;100.00;101055.75;4975200;28;20461;-95
2023/02/17 01:42:23;;;;;;;2.30;0.30;;;;;;;8.79;100.00;101033.59;4975876;28;20027;-95
2023/02/17 01:45:16;;;;;;;1.67;0.40;;;;;;;8.90;100.00;101077.75;4974936;28;20035;-96
2023/02/17 01:47:49;;;;;;;4.53;0.30;;;;;;;8.83;100.00;101054.88;4974212;28;20031;-95
2023/02/17 01:50:17;;;;;;;3.88;0.47;;;;;;;8.73;100.00;101039.81;4974593;28;20018;-95
2023/02/17 01:52:43;;;;;;;1.65;0.20;;;;;;;8.82;100.00;101059.19;4974999;28;20027;-95
2023/02/17 01:55:15;;;;;;;1.30;0.28;;;;;;;8.84;100.00;101056.56;4974749;28;20027;-96
2023/02/17 01:57:42;;;;;;;0.55;0.20;;;;;;;8.79;100.00;101044.72;4975999;28;20033;-95
2023/02/17 02:00:10;;;;;;;1.27;0.20;;;;;;;8.78;100.00;101068.78;4974289;28;20058;-96
2023/02/17 02:02:37;;;;;;;2.60;0.35;;;;;;;8.72;100.00;101078.47;4975064;28;20023;-94
2023/02/17 02:05:03;;;;;;;4.60;0.47;;;;;;;8.81;100.00;101072.13;4976108;28;20034;-95
2023/02/17 02:07:35;;;;;;;1.23;0.40;;;;;;;8.78;100.00;101073.09;4974800;28;20113;-95
2023/02/17 02:10:02;;;;;;;3.28;0.20;;;;;;;8.71;100.00;101069.09;4974470;28;20101;-96
2023/02/17 02:12:30;;;;;;;1.65;0.20;;;;;;;8.79;100.00;101049.03;4974556;28;20118;-96
2023/02/17 02:15:00;;;;;;;2.70;0.10;;;;;;;8.92;100.00;101086.22;4973957;28;20026;-96
2023/02/17 02:17:34;;;;;;;1.35;0.35;;;;;;;8.97;100.00;101079.19;4974183;28;20385;-94
2023/02/17 02:20:21;;;;;;;1.77;0.30;;;;;;;8.94;100.00;101084.44;4974817;28;20501;-96
2023/02/17 02:23:12;;;;;;;3.72;0.40;;;;;;;8.84;100.00;101088.28;4974552;28;20069;-96
2023/02/17 02:25:59;;;;;;;0.90;0.20;;;;;;;8.84;100.00;101096.00;4974724;28;20027;-96
2023/02/17 02:28:27;;;;;;;3.58;0.40;;;;;;;8.81;100.00;101093.56;4974632;28;20031;-94
2023/02/17 02:31:19;;;;;;;3.70;0.88;;;;;;;8.71;100.00;101076.81;4974672;28;20400;-95
2023/02/17 02:33:50;;;;;;;3.10;0.20;;;;;;;8.79;100.00;101096.19;4958841;28;20053;-96
2023/02/17 02:36:30;;;;;;;0.20;0.08;;;;;;;8.83;100.00;101096.06;4974154;28;20492;-95
2023/02/17 02:39:10;;;;;;;0.55;0.00;;;;;;;8.77;100.00;101086.84;4973945;28;20033;-96
2023/02/17 02:41:37;;;;;;;0.28;0.10;;;;;;;8.74;100.00;101077.53;4974754;28;20027;-95
2023/02/17 02:44:08;;;;;;;0.28;0.10;;;;;;;8.70;100.00;101095.72;4973341;28;20065;-96
2023/02/17 02:46:34;;;;;;;0.85;0.15;;;;;;;8.74;100.00;101110.97;4973307;28;20125;-95
2023/02/17 02:49:01;;;;;;;3.00;0.13;;;;;;;8.63;100.00;101050.53;4974443;28;20425;-95
2023/02/17 02:51:45;;;;;;;2.40;0.10;;;;;;;8.73;100.00;101095.59;4974072;28;20384;-96
2023/02/17 02:54:35;;;;;;;0.77;0.10;;;;;;;8.44;100.00;101063.28;4974785;28;20034;-96
2023/02/17 02:57:16;;;;;;;2.08;0.10;;;;;;;8.83;100.00;101112.38;4972395;28;20026;-95
2023/02/17 03:00:19;;;;;;;2.00;0.50;;;;;;;8.92;100.00;101100.84;4973746;28;20531;-95
2023/02/17 03:03:08;;;;;;;1.67;0.25;;;;;;;8.74;100.00;101092.13;4973597;28;20125;-95
2023/02/17 03:05:44;;;;;;;1.85;0.50;;;;;;;8.68;100.00;101076.91;4973451;28;20030;-95
2023/02/17 03:08:19;;;;;;;1.08;0.20;;;;;;;8.51;100.00;101057.00;4974236;28;20465;-95
2023/02/17 03:10:47;;;;;;;1.27;0.20;;;;;;;8.55;100.00;101056.81;4973861;28;20026;-95
2023/02/17 03:13:14;;;;;;;5.57;0.30;;;;;;;8.69;100.00;101083.75;4972210;28;20050;-95
2023/02/17 03:15:40;;;;;;;4.07;0.90;;;;;;;8.57;100.00;101070.47;4973614;28;20030;-95
2023/02/17 03:18:05;;;;;;;3.67;0.50;;;;;;;8.55;100.00;101076.56;4974023;28;20023;-95
2023/02/17 03:20:38;;;;;;;1.77;0.38;;;;;;;8.46;100.00;101071.75;4973694;28;20129;-95
2023/02/17 03:23:05;;;;;;;1.35;0.10;;;;;;;8.49;100.00;101072.50;4972954;28;20050;-96
2023/02/17 03:25:30;;;;;;;2.40;0.20;;;;;;;8.23;100.00;101049.47;4973696;28;20088;-96
2023/02/17 03:27:56;;;;;;;3.88;0.40;;;;;;;8.36;100.00;101061.81;4972917;28;20054;-96
2023/02/17 03:30:22;;;;;;;2.55;0.20;;;;;;;8.32;100.00;101044.00;4973297;28;20031;-95
2023/02/17 03:32:47;;;;;;;0.38;0.10;;;;;;;8.39;100.00;101066.00;4973333;28;20118;-95
2023/02/17 03:35:13;;;;;;;1.45;0.38;;;;;;;8.41;100.00;101051.34;4972904;28;20038;-96
2023/02/17 03:37:39;;;;;;;2.25;0.30;;;;;;;8.45;100.00;101040.06;4973560;28;20073;-96
2023/02/17 03:40:07;;;;;;;2.22;0.30;;;;;;;8.50;100.00;101063.88;4973093;28;20600;-96
2023/02/17 03:42:32;;;;;;;2.20;0.43;;;;;;;8.52;100.00;101068.97;4973416;28;20034;-95
2023/02/17 03:44:58;;;;;;;8.07;0.50;;;;;;;8.45;100.00;101044.38;4973787;28;20473;-96
2023/02/17 03:47:23;;;;;;;3.10;0.60;;;;;;;8.40;100.00;101031.69;4973513;28;20449;-95
2023/02/17 03:49:50;;;;;;;1.67;0.40;;;;;;;8.53;100.00;101061.19;4976899;28;20030;-95
2023/02/17 03:52:15;;;;;;;2.83;0.57;;;;;;;8.37;100.00;101036.94;4978024;28;20022;-96
2023/02/17 03:54:41;;;;;;;2.20;0.50;;;;;;;8.42;100.00;101032.47;4977075;28;20027;-95
2023/02/17 03:57:06;;;;;;;3.22;0.60;;;;;;;8.39;100.00;101037.72;4975512;28;20030;-96
2023/02/17 03:59:32;;;;;;;1.55;0.45;;;;;;;8.46;100.00;101057.19;4991857;28;20031;-96
2023/02/17 04:01:57;;;;;;;4.78;0.63;;;;;;;8.45;100.00;101042.63;4977756;28;20142;-96
2023/02/17 04:04:23;;;;;;;3.78;0.63;;;;;;;8.48;100.00;101042.50;4976014;28;20540;-95
2023/02/17 04:06:49;;;;;;;1.33;0.40;;;;;;;8.48;100.00;101044.25;4993127;28;20129;-95
2023/02/17 04:09:14;;;;;;;2.70;0.70;;;;;;;8.38;100.00;101020.59;4976678;28;20118;-94
2023/02/17 04:11:40;;;;;;;4.95;0.43;;;;;;;8.46;100.00;101031.47;4976274;28;20034;-94
2023/02/17 04:14:05;;;;;;;4.60;0.45;;;;;;;8.69;100.00;101037.44;4976591;28;20213;-96
2023/02/17 04:16:31;;;;;;;3.28;0.60;;;;;;;8.50;100.00;101037.31;4976810;28;20019;-96
2023/02/17 04:18:56;;;;;;;6.78;0.77;;;;;;;8.57;100.00;101031.88;4977363;28;20050;-96
2023/02/17 04:21:22;;;;;;;2.70;0.57;;;;;;;8.73;100.00;101059.56;4977157;28;20025;-96
2023/02/17 04:23:47;;;;;;;2.13;0.40;;;;;;;8.77;100.00;101050.81;4976397;28;20041;-96
2023/02/17 04:26:13;;;;;;;1.13;0.30;;;;;;;8.60;100.00;101027.50;4976717;28;20117;-95
2023/02/17 04:28:41;;;;;;;1.92;0.47;;;;;;;8.69;100.00;101045.97;4975576;28;20046;-95
2023/02/17 04:31:07;;;;;;;3.67;0.68;;;;;;;8.68;100.00;101022.88;4992831;28;20027;-95
2023/02/17 04:33:33;;;;;;;4.32;0.50;;;;;;;8.61;100.00;101003.44;4976516;28;20027;-96
2023/02/17 04:36:00;;;;;;;3.67;0.47;;;;;;;8.70;100.00;101029.63;4976342;28;20027;-96
2023/02/17 04:38:27;;;;;;;3.58;0.70;;;;;;;8.67;100.00;101008.34;4976184;28;20113;-95
2023/02/17 04:40:54;;;;;;;3.85;0.60;;;;;;;8.63;100.00;101017.06;4976163;28;20065;-95
2023/02/17 04:43:20;;;;;;;3.78;0.55;;;;;;;8.68;100.00;101017.72;4975618;28;20026;-96
2023/02/17 04:45:46;;;;;;;5.35;0.60;;;;;;;8.68;100.00;101018.59;4975797;28;20046;-96
2023/02/17 04:48:11;;;;;;;8.32;1.13;;;;;;;8.74;100.00;101030.38;4976420;28;20023;-95
2023/02/17 04:50:37;;;;;;;3.03;0.63;;;;;;;8.51;100.00;100996.09;4976227;28;20050;-95
2023/02/17 04:53:02;;;;;;;4.60;0.47;;;;;;;8.65;100.00;100998.09;4975785;28;20023;-94
2023/02/17 04:55:29;;;;;;;5.72;0.80;;;;;;;8.71;100.00;101026.19;4976379;28;20054;-95
2023/02/17 04:57:55;;;;;;;7.07;1.45;;;;;;;8.67;100.00;101016.06;4974760;28;20085;-96
2023/02/17 05:00:21;;;;;;;2.95;0.73;;;;;;;8.56;100.00;101001.91;4973856;28;20026;-95
2023/02/17 05:02:46;;;;;;;3.10;0.60;;;;;;;8.75;100.00;101016.56;4976122;28;20429;-95
2023/02/17 05:05:14;;;;;;;3.67;0.73;;;;;;;8.75;100.00;101001.13;4975452;28;20535;-94
2023/02/17 05:07:41;;;;;;;7.22;1.05;;;;;;;8.63;100.00;100997.31;4975855;28;20093;-94
2023/02/17 05:10:08;;;;;;;4.15;0.98;;;;;;;8.55;100.00;100977.06;4971925;28;20050;-95
2023/02/17 05:12:34;;;;;;;10.35;1.05;;;;;;;8.83;100.00;101011.97;4975339;28;20038;-96
2023/02/17 05:15:00;;;;;;;7.20;0.95;;;;;;;8.80;100.00;101012.09;4975228;28;20393;-95
2023/02/17 05:17:26;;;;;;;11.30;1.50;;;;;;;8.75;100.00;100985.69;4975905;28;20038;-95
2023/02/17 05:19:51;;;;;;;10.05;2.05;;;;;;;8.83;100.00;100993.97;4962169;28;20363;-96
2023/02/17 05:22:17;;;;;;;5.80;0.70;;;;;;;8.92;100.00;101006.44;4955957;29;20313;-96
2023/02/17 05:24:42;;;;;;;4.45;0.73;;;;;;;8.83;100.00;100993.09;4967051;28;20038;-95
2023/02/17 05:27:08;;;;;;;6.53;1.08;;;;;;;8.93;100.00;100995.25;4974885;28;20114;-96
2023/02/17 05:29:33;;;;;;;4.18;0.40;;;;;;;9.04;100.00;100986.22;4973851;28;20027;-95
2023/02/17 05:31:59;;;;;;;6.72;1.15;;;;;;;9.20;100.00;100995.81;4975348;28;20476;-95
2023/02/17 05:34:25;;;;;;;5.72;0.73;;;;;;;9.09;100.00;100984.28;4974472;28;20058;-96
2023/02/17 05:36:50;;;;;;;2.60;0.40;;;;;;;9.14;100.00;100983.19;4963759;28;20034;-96
2023/02/17 05:39:16;;;;;;;3.70;0.50;;;;;;;9.01;100.00;100971.75;4982048;28;20031;-95
2023/02/17 05:41:41;;;;;;;5.72;0.75;;;;;;;9.10;100.00;100968.78;4965572;28;20058;-96
2023/02/17 05:44:07;;;;;;;5.88;0.40;;;;;;;9.11;100.00;100980.75;4956219;29;20612;-95
2023/02/17 05:46:32;;;;;;;5.82;0.55;;;;;;;9.02;100.00;100962.28;4955673;28;20038;-96
2023/02/17 05:48:58;;;;;;;5.10;0.77;;;;;;;9.12;100.00;100981.59;4965215;28;20023;-96
2023/02/17 05:51:23;;;;;;;2.20;0.35;;;;;;;9.09;100.00;100963.69;4975012;28;20026;-96
2023/02/17 05:53:49;;;;;;;2.05;0.35;;;;;;;9.15;100.00;100971.16;4973730;28;20460;-96
2023/02/17 05:56:14;;;;;;;4.57;0.52;;;;;;;9.07;100.00;100944.88;4975344;28;20461;-96
2023/02/17 05:58:40;;;;;;;2.65;0.50;;;;;;;9.08;100.00;100969.75;4974416;28;20066;-95
2023/02/17 06:01:10;;;;;;;6.32;0.45;;;;;;;9.08;100.00;100954.31;4976925;28;20033;-95
2023/02/17 06:03:35;;;;;;;4.22;1.42;;;;;;;9.33;100.00;100990.97;4974397;28;20126;-95
2023/02/17 06:06:01;;;;;;;3.70;0.47;;;;;;;9.27;100.00;100993.00;4974817;28;20478;-95
2023/02/17 06:08:27;;;;;;;5.85;0.52;;;;;;;9.05;100.00;100951.88;4974021;28;20081;-96
2023/02/17 06:10:53;;;;;;;3.58;0.30;;;;;;;8.95;100.00;100941.97;4975289;28;20019;-95
2023/02/17 06:13:19;;;;;;;1.35;0.30;;;;;;;9.06;100.00;100958.69;4975771;28;20030;-96
2023/02/17 06:15:45;;;;;;;3.75;0.30;;;;;;;9.12;100.00;100953.25;4975837;28;20030;-95
2023/02/17 06:18:11;;;;;;;3.53;0.40;;;;;;;9.16;100.00;100954.81;4974647;28;20022;-94
2023/02/17 06:20:37;;;;;;;1.75;0.50;;;;;;;9.08;100.00;100967.19;4974869;28;20105;-95
2023/02/17 06:23:02;;;;;;;6.82;0.35;;;;;;;9.02;100.00;100962.28;4973838;28;20027;-96
2023/02/17 06:25:28;;;;;;;3.33;0.52;;;;;;;8.87;100.00;100933.72;4974494;28;20034;-95
2023/02/17 06:27:54;;;;;;;6.25;0.50;;;;;;;9.04;100.00;100945.03;4974442;28;20038;-96
2023/02/17 06:30:20;;;;;;;5.88;0.55;;;;;;;9.07;100.00;100957.78;4974847;28;20031;-95
2023/02/17 06:32:46;;;;;;;4.13;0.38;;;;;;;9.07;100.00;100983.50;4974570;28;20030;-95
2023/02/17 06:35:12;;;;;;;3.50;0.43;;;;;;;9.11;100.00;100974.78;4974419;28;20027;-95
2023/02/17 06:37:37;;;;;;;2.00;0.30;;;;;;;9.15;100.00;100986.63;4974689;28;20034;-96
2023/02/17 06:40:05;;;;;;;2.58;0.30;;;;;;;9.06;100.00;100981.84;4974308;28;20164;-94
2023/02/17 06:42:30;;;;;;;3.50;0.47;;;;;;;9.26;100.00;100994.72;4974331;28;20506;-96
2023/02/17 06:44:56;;;;;;;4.47;0.50;;;;;;;9.09;100.00;100968.84;4973656;28;20042;-96
2023/02/17 06:47:21;;;;;;;2.97;0.63;;;;;;;9.04;100.00;100991.38;4973675;28;20022;-95
2023/02/17 06:49:47;;;;;;;2.80;0.40;;;;;;;9.15;100.00;100984.88;4974391;28;20113;-96
2023/02/17 06:52:12;;;;;;;2.28;0.38;;;;;;;9.19;100.00;101008.75;4972424;28;20608;-95
2023/02/17 06:54:38;;;;;;;2.72;0.30;;;;;;;9.27;100.00;100998.97;4972686;28;20041;-95
2023/02/17 06:57:03;;;;;;;5.25;0.30;;;;;;;9.24;100.00;100988.78;4973833;28;20193;-95
2023/02/17 06:59:31;;;;;;;5.85;0.30;;;;;;;9.33;100.00;101027.03;4974603;28;20026;-95
2023/02/17 07:01:57;;;;;;;1.55;0.25;;;;;;;9.17;100.00;101023.47;4973766;28;20421;-95
2023/02/17 07:04:22;;;;;;;3.20;0.35;;;;;;;9.17;100.00;101028.59;4974254;28;20094;-96
2023/02/17 07:06:48;;;;;;;1.83;0.60;;;;;;;9.14;100.00;101013.25;4974288;28;20031;-96
2023/02/17 07:09:13;;;;;;;1.92;0.30;;;;;;;9.09;100.00;101010.03;4973180;28;20516;-95
2023/02/17 07:11:40;;;;;;;4.20;0.30;;;;;;;9.24;100.00;101040.28;4974103;28;20548;-95
2023/02/17 07:14:06;;;;;;;2.70;0.40;;;;;;;9.21;100.00;101035.28;4974648;28;20034;-95
2023/02/17 07:16:35;;;;;;;6.90;0.90;;;;;;;9.00;100.00;101037.03;4978102;28;20027;-96
2023/02/17 07:19:00;;;;;;;2.45;0.30;;;;;;;8.95;100.00;101039.78;4976063;28;20029;-95
2023/02/17 07:21:26;;;;;;;3.50;0.60;;;;;;;8.95;100.00;101038.97;4973836;28;20094;-96
2023/02/17 07:23:51;;;;;;;4.03;0.50;;;;;;;8.93;100.00;101051.88;4972619;28;20473;-95
2023/02/17 07:26:17;;;;;;;3.47;0.57;;;;;;;9.04;100.00;101076.34;4973694;28;20034;-95
2023/02/17 07:28:43;;;;;;;4.25;0.73;;;;;;;8.99;100.00;101097.97;4971810;28;20027;-95
2023/02/17 07:31:14;;;;;;;5.75;0.70;;;;;;;8.85;100.00;101066.81;4974142;28;20370;-95
2023/02/17 07:33:40;;;;;;;3.85;0.75;;;;;;;8.95;100.00;101106.72;4972931;28;20031;-95
2023/02/17 07:36:07;;;;;;;6.57;0.60;;;;;;;9.07;100.00;101096.81;4972693;28;20057;-95
2023/02/17 07:38:34;;;;;;;7.20;1.15;;;;;;;8.82;100.00;101069.50;4972020;28;20027;-96
2023/02/17 07:41:07;;;;;;;3.15;0.60;;;;;;;8.95;100.00;101106.72;4971678;28;20161;-96
2023/02/17 07:43:33;;;;;;;1.70;0.40;;;;;;;8.94;100.00;101099.88;4969670;28;20026;-96
2023/02/17 07:45:59;;;;;;;9.93;0.85;;;;;;;8.92;100.00;101111.97;4970322;28;20026;-96
2023/02/17 07:48:24;;;;;;;4.97;0.70;;;;;;;8.98;100.00;101075.69;4972063;28;20041;-96
2023/02/17 07:50:50;;;;;;;6.63;0.75;;;;;;;8.83;100.00;101071.19;4972880;28;20066;-95
2023/02/17 07:53:15;;;;;;;4.18;0.52;;;;;;;9.07;100.00;101115.72;4972863;28;20027;-96
2023/02/17 07:55:41;;;;;;;3.42;0.50;;;;;;;9.10;100.00;101125.03;4972763;28;20031;-96
2023/02/17 07:58:06;;;;;;;7.00;0.73;;;;;;;8.91;100.00;101094.88;4971941;28;20086;-96
2023/02/17 08:00:32;;;;;;;2.55;0.63;;;;;;;9.02;100.00;101094.44;4971802;28;20027;-96
2023/02/17 08:02:57;;;;;;;4.70;0.43;;;;;;;9.06;100.00;101123.47;4972770;28;20088;-96
2023/02/17 08:05:23;;;;;;;1.85;0.75;;;;;;;9.09;100.00;101131.91;4972664;28;20104;-96
2023/02/17 08:13:17;;;;;;;2.53;0.80;;;;;;;8.91;100.00;101097.44;4972520;28;20038;-96
2023/02/17 08:13:21;;;;;;;6.28;1.52;;;;;;;9.11;100.00;101139.59;4974176;28;20089;-95
2023/02/17 08:15:46;;;;;;;4.85;0.60;;;;;;;9.00;100.00;101120.25;4971950;28;20117;-95
2023/02/17 08:18:12;;;;;;;3.20;0.45;;;;;;;9.00;100.00;101130.56;4972826;28;20636;-96
2023/02/17 08:20:37;;;;;;;4.97;0.52;;;;;;;9.00;100.00;101130.56;4972718;28;20472;-95
2023/02/17 08:23:03;;;;;;;1.85;0.50;;;;;;;9.12;100.00;101151.53;4972576;28;20039;-95
2023/02/17 08:25:33;;;;;;;4.57;0.43;;;;;;;8.94;100.00;101135.09;4972631;28;20034;-95
2023/02/17 08:27:59;;;;;;;3.60;0.85;;;;;;;9.08;100.00;101152.59;4972283;28;20027;-96
2023/02/17 08:30:25;;;;;;;7.80;1.02;;;;;;;9.10;100.00;101161.09;4972003;28;20027;-95
2023/02/17 08:32:50;;;;;;;0.93;0.35;;;;;;;9.06;100.00;101142.34;4972665;28;20135;-96
2023/02/17 08:35:21;;;;;;;1.73;0.60;;;;;;;9.05;100.00;101142.41;4973785;28;20030;-96
2023/02/17 08:37:48;;;;;;;2.95;0.60;;;;;;;9.12;100.00;101164.41;4976675;28;20058;-96
2023/02/17 08:40:14;;;;;;;1.65;0.38;;;;;;;9.16;100.00;101178.88;4975904;28;20098;-96
2023/02/17 08:42:39;;;;;;;2.92;0.45;;;;;;;9.22;100.00;101181.22;4976038;28;20493;-95
2023/02/17 08:45:05;;;;;;;7.00;0.88;;;;;;;9.17;100.00;101172.84;4974820;28;20074;-95
2023/02/17 08:47:31;;;;;;;2.35;0.40;;;;;;;9.13;100.00;101163.53;4975670;28;20050;-95
2023/02/17 08:49:56;;;;;;;3.53;0.52;;;;;;;9.40;100.00;101195.91;4973011;28;20030;-95
2023/02/17 08:52:27;;;;;;;2.95;0.43;;;;;;;9.11;100.00;101160.19;4966324;28;20481;-96
2023/02/17 08:54:53;;;;;;;6.35;0.73;;;;;;;9.32;100.00;101186.84;4959621;28;20087;-96
2023/02/17 08:57:20;;;;;;;2.42;0.40;;;;;;;9.22;100.00;101160.59;4973184;28;20126;-96
2023/02/17 08:59:48;;;;;;;2.50;0.65;;;;;;;9.21;100.00;101158.91;4973345;28;20038;-95
2023/02/17 09:02:14;;;;;;;1.88;0.38;;;;;;;9.42;100.00;101173.50;4975953;28;20019;-95
2023/02/17 09:04:43;;;;;;;6.28;1.17;;;;;;;9.53;100.00;101191.09;4964831;28;20076;-95
2023/02/17 09:07:12;;;;;;;2.63;0.73;;;;;;;9.66;100.00;101199.19;4958085;28;20023;-95
2023/02/17 09:09:38;;;;;;;7.15;0.70;;;;;;;9.43;100.00;101180.31;4973266;28;20336;-95
2023/02/17 09:12:04;;;;;;;2.70;1.00;;;;;;;9.59;100.00;101179.72;4973373;28;20042;-95
2023/02/17 09:14:30;;;;;;;4.95;0.68;;;;;;;9.77;100.00;101196.97;4972742;28;20034;-95
2023/02/17 09:16:56;;;;;;;2.92;0.30;;;;;;;9.65;100.00;101180.28;4973085;28;20045;-95
2023/02/17 09:19:22;;;;;;;3.80;0.40;;;;;;;9.68;100.00;101174.19;4973290;28;20026;-96
2023/02/17 09:21:48;;;;;;;1.45;0.30;;;;;;;9.87;100.00;101200.00;4971592;28;20584;-94
2023/02/17 09:24:14;;;;;;;1.85;0.32;;;;;;;9.92;100.00;101194.66;4971611;28;20038;-95
2023/02/17 09:26:40;;;;;;;1.05;0.20;;;;;;;10.01;100.00;101212.31;4971717;28;20027;-95
2023/02/17 09:29:07;;;;;;;2.40;0.30;;;;;;;9.97;100.00;101184.97;4973187;28;20058;-96
2023/02/17 09:31:35;;;;;;;2.60;0.20;;;;;;;10.07;100.00;101201.72;4968202;28;20034;-95
2023/02/17 09:34:01;;;;;;;2.40;0.90;;;;;;;10.14;100.00;101197.16;4972813;28;20512;-95
2023/02/17 09:36:29;;;;;;;0.73;0.30;;;;;;;10.10;100.00;101173.25;4974546;28;20039;-96
2023/02/17 09:38:55;;;;;;;6.97;1.08;;;;;;;10.17;100.00;101182.38;4967778;28;20030;-96
2023/02/17 09:41:38;;;;;;;1.45;0.57;;;;;;;10.12;100.00;101212.72;4975655;28;20035;-95
2023/02/17 09:44:18;;;;;;;3.92;0.30;;;;;;;10.05;100.00;101188.91;4972438;28;20059;-95
2023/02/17 09:46:50;;;;;;;2.00;0.40;;;;;;;10.40;100.00;101178.81;4973944;28;20465;-95
2023/02/17 09:49:24;;;;;;;1.73;0.30;;;;;;;10.39;100.00;101163.41;4975338;28;20022;-96
2023/02/17 09:52:10;;;;;;;3.05;0.30;;;;;;;10.62;100.00;101194.16;4974964;28;20026;-96
2023/02/17 09:54:46;;;;;;;2.42;0.22;;;;;;;10.84;100.00;101195.75;4974587;28;20027;-96
2023/02/17 09:57:19;;;;;;;2.60;0.43;;;;;;;10.43;100.00;101188.16;4974680;28;20023;-96
2023/02/17 09:59:54;;;;;;;2.10;0.10;;;;;;;10.70;100.00;101199.84;4973399;28;20035;-96
2023/02/17 10:02:30;;;;;;;7.15;0.28;;;;;;;10.92;100.00;101216.91;4972830;28;20037;-96
2023/02/17 10:05:02;;;;;;;2.28;0.25;;;;;;;10.74;100.00;101192.78;4989340;28;20030;-95
2023/02/17 10:08:01;;;;;;;1.90;0.20;;;;;;;10.58;100.00;101177.13;4973413;28;20071;-95
2023/02/17 10:10:34;;;;;;;2.30;0.35;;;;;;;10.43;100.00;101193.31;4990235;28;20061;-96
2023/02/17 10:13:03;;;;;;;1.50;0.35;;;;;;;10.44;100.00;101169.19;4974048;28;20028;-95
2023/02/17 10:15:34;;;;;;;2.05;0.43;;;;;;;10.62;100.00;101188.16;4974189;28;20019;-96
2023/02/17 10:18:36;;;;;;;2.45;0.60;;;;;;;11.01;100.00;101188.06;4974283;28;20030;-95
2023/02/17 10:21:24;;;;;;;3.15;0.30;;;;;;;11.13;100.00;101213.31;4943322;28;20063;-96
2023/02/17 10:23:52;;;;;;;5.63;0.95;;;;;;;10.78;100.00;101171.06;4973586;28;20034;-95
2023/02/17 10:26:45;;;;;;;1.45;0.30;;;;;;;11.06;100.00;101178.34;4974255;28;20049;-96
2023/02/17 10:29:41;;;;;;;1.13;0.20;;;;;;;11.16;100.00;101177.91;4974186;28;20031;-95
2023/02/17 10:32:16;;;;;;;0.82;0.10;;;;;;;11.34;100.00;101197.72;4973802;28;20037;-96
2023/02/17 10:34:51;;;;;;;1.27;0.38;;;;;;;11.02;100.00;101170.81;4973852;28;20026;-95
2023/02/17 10:37:38;;;;;;;1.55;0.40;;;;;;;11.26;100.00;101199.81;4990079;28;20058;-96
2023/02/17 10:40:30;;;;;;;1.38;0.25;;;;;;;11.35;100.00;101197.63;4974245;28;20382;-95
2023/02/17 10:43:05;;;;;;;1.35;0.30;;;;;;;11.61;100.00;101197.25;4972561;28;20478;-96
2023/02/17 10:45:35;;;;;;;1.25;0.30;;;;;;;11.35;100.00;101189.03;4974204;28;20049;-96
2023/02/17 10:48:21;;;;;;;2.95;0.50;;;;;;;11.22;100.00;101172.47;4974066;28;20023;-96
2023/02/17 10:50:48;;;;;;;0.90;0.20;;;;;;;11.26;100.00;101173.97;4974210;28;20022;-96
2023/02/17 10:53:27;;;;;;;1.08;0.45;;;;;;;11.29;100.00;101176.41;4974375;28;20304;-96
2023/02/17 10:56:22;;;;;;;2.30;0.40;;;;;;;11.47;100.00;101214.28;4973601;28;20022;-96
2023/02/17 10:59:01;;;;;;;0.63;0.30;;;;;;;11.55;100.00;101209.56;4958322;28;20038;-94
2023/02/17 11:01:28;;;;;;;0.30;0.20;;;;;;;11.55;100.00;101185.47;4973800;28;20523;-96
2023/02/17 11:04:06;;;;;;;2.30;0.40;;;;;;;11.83;100.00;101221.16;4973515;28;20103;-95
2023/02/17 11:06:40;;;;;;;4.78;0.47;;;;;;;11.92;100.00;101192.22;4973298;28;20030;-95
2023/02/17 11:09:17;;;;;;;1.17;0.35;;;;;;;11.95;100.00;101176.56;4973328;28;20050;-95
2023/02/17 11:11:56;;;;;;;0.35;0.20;;;;;;;12.03;100.00;101203.81;4973023;28;20027;-95
2023/02/17 11:14:28;;;;;;;2.17;0.47;;;;;;;12.11;100.00;101222.34;4975153;28;20054;-96
2023/02/17 11:16:58;;;;;;;0.73;0.30;;;;;;;12.05;100.00;101194.22;4973665;28;20022;-96
2023/02/17 11:19:28;;;;;;;1.63;0.32;;;;;;;12.30;100.00;101219.66;4974972;28;20122;-95
2023/02/17 11:21:57;;;;;;;1.98;0.40;;;;;;;12.50;100.00;101198.72;4975703;28;20034;-96
2023/02/17 11:24:23;;;;;;;2.88;0.68;;;;;;;12.18;100.00;101203.84;4973042;28;20023;-95
2023/02/17 11:27:00;;;;;;;1.15;0.10;;;;;;;12.50;100.00;101214.25;4972563;28;20058;-95
2023/02/17 11:29:26;;;;;;;2.55;0.30;;;;;;;12.06;100.00;101227.75;4973360;28;20027;-95
2023/02/17 11:32:00;;;;;;;3.85;0.40;;;;;;;11.98;100.00;101210.03;4973186;28;20454;-96
2023/02/17 11:34:31;;;;;;;1.38;0.20;;;;;;;11.82;100.00;101210.88;4973323;28;20102;-95
2023/02/17 11:37:10;;;;;;;3.97;0.50;;;;;;;11.85;100.00;101214.16;4973327;28;20548;-96